sensor_id;sensor_type;location;lat;lon;timestamp;P1;durP1;ratioP1;P2;durP2;ratioP2
42294;SDS011;27947;47.556;18.718;2023-03-17T00:00:27;8.57;;;3.70;;
42294;SDS011;27947;47.556;18.718;2023-03-17T00:02:53;8.00;;;3.60;;
42294;SDS011;27947;47.556;18.718;2023-03-17T00:05:20;7.95;;;3.70;;
42294;SDS011;27947;47.556;18.718;2023-03-17T00:07:46;7.78;;;3.17;;
42294;SDS011;27947;47.556;18.718;2023-03-17T00:10:13;6.78;;;3.17;;
42294;SDS011;27947;47.556;18.718;2023-03-17T00:12:39;9.23;;;3.45;;
42294;SDS011;27947;47.556;18.718;2023-03-17T00:15:05;9.13;;;3.45;;
42294;SDS011;27947;47.556;18.718;2023-03-17T00:17:31;6.85;;;3.40;;
42294;SDS011;27947;47.556;18.718;2023-03-17T00:19:57;7.30;;;3.45;;
42294;SDS011;27947;47.556;18.718;2023-03-17T00:22:22;9.68;;;3.72;;
42294;SDS011;27947;47.556;18.718;2023-03-17T00:24:47;8.80;;;3.50;;
42294;SDS011;27947;47.556;18.718;2023-03-17T00:27:13;10.25;;;3.67;;
42294;SDS011;27947;47.556;18.718;2023-03-17T00:29:39;6.93;;;3.60;;
42294;SDS011;27947;47.556;18.718;2023-03-17T00:32:07;10.90;;;3.83;;
42294;SDS011;27947;47.556;18.718;2023-03-17T00:34:35;8.85;;;3.40;;
42294;SDS011;27947;47.556;18.718;2023-03-17T00:37:01;9.57;;;3.53;;
42294;SDS011;27947;47.556;18.718;2023-03-17T00:39:27;10.20;;;4.18;;
42294;SDS011;27947;47.556;18.718;2023-03-17T00:41:53;8.75;;;3.85;;
42294;SDS011;27947;47.556;18.718;2023-03-17T00:44:18;10.90;;;3.67;;
42294;SDS011;27947;47.556;18.718;2023-03-17T00:46:44;8.80;;;3.70;;
42294;SDS011;27947;47.556;18.718;2023-03-17T00:49:14;11.15;;;3.83;;
42294;SDS011;27947;47.556;18.718;2023-03-17T00:51:41;6.15;;;3.53;;
42294;SDS011;27947;47.556;18.718;2023-03-17T00:54:08;8.40;;;3.90;;
42294;SDS011;27947;47.556;18.718;2023-03-17T00:56:34;7.15;;;3.45;;
42294;SDS011;27947;47.556;18.718;2023-03-17T00:59:02;9.98;;;4.00;;
42294;SDS011;27947;47.556;18.718;2023-03-17T01:01:28;9.10;;;4.28;;
42294;SDS011;27947;47.556;18.718;2023-03-17T01:03:54;9.13;;;4.13;;
42294;SDS011;27947;47.556;18.718;2023-03-17T01:06:19;8.93;;;3.67;;
42294;SDS011;27947;47.556;18.718;2023-03-17T01:08:45;7.88;;;3.78;;
42294;SDS011;27947;47.556;18.718;2023-03-17T01:11:15;9.93;;;3.80;;
42294;SDS011;27947;47.556;18.718;2023-03-17T01:13:42;10.43;;;3.97;;
42294;SDS011;27947;47.556;18.718;2023-03-17T01:16:08;7.90;;;3.65;;
42294;SDS011;27947;47.556;18.718;2023-03-17T01:18:34;8.02;;;3.70;;
42294;SDS011;27947;47.556;18.718;2023-03-17T01:20:59;8.07;;;4.10;;
42294;SDS011;27947;47.556;18.718;2023-03-17T01:23:25;10.82;;;3.67;;
42294;SDS011;27947;47.556;18.718;2023-03-17T01:25:51;7.68;;;3.67;;
42294;SDS011;27947;47.556;18.718;2023-03-17T01:28:17;7.30;;;3.67;;
42294;SDS011;27947;47.556;18.718;2023-03-17T01:30:44;8.98;;;3.38;;
42294;SDS011;27947;47.556;18.718;2023-03-17T01:33:12;9.73;;;3.65;;
42294;SDS011;27947;47.556;18.718;2023-03-17T01:35:37;6.72;;;3.33;;
42294;SDS011;27947;47.556;18.718;2023-03-17T01:38:03;9.30;;;3.90;;
42294;SDS011;27947;47.556;18.718;2023-03-17T01:40:30;12.27;;;3.88;;
42294;SDS011;27947;47.556;18.718;2023-03-17T01:43:16;8.82;;;4.43;;
42294;SDS011;27947;47.556;18.718;2023-03-17T01:48:26;10.50;;;4.28;;
42294;SDS011;27947;47.556;18.718;2023-03-17T01:50:53;11.63;;;4.30;;
42294;SDS011;27947;47.556;18.718;2023-03-17T01:53:19;9.00;;;3.92;;
42294;SDS011;27947;47.556;18.718;2023-03-17T01:55:45;10.55;;;4.13;;
42294;SDS011;27947;47.556;18.718;2023-03-17T01:58:12;12.02;;;4.25;;
42294;SDS011;27947;47.556;18.718;2023-03-17T02:00:39;10.13;;;4.07;;
42294;SDS011;27947;47.556;18.718;2023-03-17T02:03:04;8.52;;;3.80;;
42294;SDS011;27947;47.556;18.718;2023-03-17T02:05:30;9.57;;;3.65;;
42294;SDS011;27947;47.556;18.718;2023-03-17T02:07:56;11.30;;;4.70;;
42294;SDS011;27947;47.556;18.718;2023-03-17T02:10:26;10.05;;;3.70;;
42294;SDS011;27947;47.556;18.718;2023-03-17T02:12:54;10.88;;;4.40;;
42294;SDS011;27947;47.556;18.718;2023-03-17T02:15:21;7.38;;;4.25;;
42294;SDS011;27947;47.556;18.718;2023-03-17T02:17:46;10.38;;;4.38;;
42294;SDS011;27947;47.556;18.718;2023-03-17T02:22:44;6.32;;;3.53;;
42294;SDS011;27947;47.556;18.718;2023-03-17T02:25:12;11.45;;;3.60;;
42294;SDS011;27947;47.556;18.718;2023-03-17T02:27:40;10.52;;;3.90;;
42294;SDS011;27947;47.556;18.718;2023-03-17T02:30:07;8.35;;;3.65;;
42294;SDS011;27947;47.556;18.718;2023-03-17T02:32:34;8.05;;;3.40;;
42294;SDS011;27947;47.556;18.718;2023-03-17T02:34:59;7.50;;;3.22;;
42294;SDS011;27947;47.556;18.718;2023-03-17T02:37:26;8.82;;;3.78;;
42294;SDS011;27947;47.556;18.718;2023-03-17T02:39:51;10.45;;;3.47;;
42294;SDS011;27947;47.556;18.718;2023-03-17T02:42:17;7.20;;;3.10;;
42294;SDS011;27947;47.556;18.718;2023-03-17T02:44:43;7.82;;;3.42;;
42294;SDS011;27947;47.556;18.718;2023-03-17T02:47:10;7.88;;;3.45;;
42294;SDS011;27947;47.556;18.718;2023-03-17T02:49:35;9.63;;;3.38;;
42294;SDS011;27947;47.556;18.718;2023-03-17T02:52:01;7.25;;;3.20;;
42294;SDS011;27947;47.556;18.718;2023-03-17T02:54:27;9.45;;;3.60;;
42294;SDS011;27947;47.556;18.718;2023-03-17T02:56:52;6.53;;;2.95;;
42294;SDS011;27947;47.556;18.718;2023-03-17T02:59:17;7.75;;;3.72;;
42294;SDS011;27947;47.556;18.718;2023-03-17T03:01:43;7.22;;;3.42;;
42294;SDS011;27947;47.556;18.718;2023-03-17T03:04:08;6.93;;;3.17;;
42294;SDS011;27947;47.556;18.718;2023-03-17T03:06:34;5.68;;;3.17;;
42294;SDS011;27947;47.556;18.718;2023-03-17T03:09:00;8.88;;;3.53;;
42294;SDS011;27947;47.556;18.718;2023-03-17T03:11:25;8.52;;;3.28;;
42294;SDS011;27947;47.556;18.718;2023-03-17T03:13:51;6.28;;;3.00;;
42294;SDS011;27947;47.556;18.718;2023-03-17T03:16:16;9.73;;;3.55;;
42294;SDS011;27947;47.556;18.718;2023-03-17T03:18:42;10.15;;;3.60;;
42294;SDS011;27947;47.556;18.718;2023-03-17T03:21:07;8.30;;;3.30;;
42294;SDS011;27947;47.556;18.718;2023-03-17T03:23:33;6.78;;;3.17;;
42294;SDS011;27947;47.556;18.718;2023-03-17T03:25:59;8.98;;;3.50;;
42294;SDS011;27947;47.556;18.718;2023-03-17T03:28:24;6.97;;;3.17;;
42294;SDS011;27947;47.556;18.718;2023-03-17T03:30:49;8.55;;;3.83;;
42294;SDS011;27947;47.556;18.718;2023-03-17T03:33:15;8.25;;;3.60;;
42294;SDS011;27947;47.556;18.718;2023-03-17T03:35:41;9.55;;;3.63;;
42294;SDS011;27947;47.556;18.718;2023-03-17T03:38:09;9.82;;;3.58;;
42294;SDS011;27947;47.556;18.718;2023-03-17T03:40:34;11.20;;;4.85;;
42294;SDS011;27947;47.556;18.718;2023-03-17T03:43:00;12.13;;;4.25;;
42294;SDS011;27947;47.556;18.718;2023-03-17T03:45:26;9.88;;;3.92;;
42294;SDS011;27947;47.556;18.718;2023-03-17T03:47:51;14.07;;;4.53;;
42294;SDS011;27947;47.556;18.718;2023-03-17T03:50:17;15.43;;;5.28;;
42294;SDS011;27947;47.556;18.718;2023-03-17T03:52:42;10.55;;;4.40;;
42294;SDS011;27947;47.556;18.718;2023-03-17T03:55:08;8.68;;;3.92;;
42294;SDS011;27947;47.556;18.718;2023-03-17T03:57:33;6.80;;;3.60;;
42294;SDS011;27947;47.556;18.718;2023-03-17T03:59:59;7.88;;;4.18;;
42294;SDS011;27947;47.556;18.718;2023-03-17T04:02:24;11.13;;;3.80;;
42294;SDS011;27947;47.556;18.718;2023-03-17T04:04:51;12.77;;;4.13;;
42294;SDS011;27947;47.556;18.718;2023-03-17T04:07:16;12.80;;;4.13;;
42294;SDS011;27947;47.556;18.718;2023-03-17T04:09:42;9.82;;;3.65;;
42294;SDS011;27947;47.556;18.718;2023-03-17T04:12:07;15.15;;;4.13;;
42294;SDS011;27947;47.556;18.718;2023-03-17T04:14:33;9.27;;;3.75;;
42294;SDS011;27947;47.556;18.718;2023-03-17T04:16:58;9.43;;;3.78;;
42294;SDS011;27947;47.556;18.718;2023-03-17T04:19:23;11.63;;;3.97;;
42294;SDS011;27947;47.556;18.718;2023-03-17T04:21:49;6.97;;;3.35;;
42294;SDS011;27947;47.556;18.718;2023-03-17T04:24:15;7.85;;;3.88;;
42294;SDS011;27947;47.556;18.718;2023-03-17T04:26:40;8.93;;;3.75;;
42294;SDS011;27947;47.556;18.718;2023-03-17T04:29:06;9.85;;;4.22;;
42294;SDS011;27947;47.556;18.718;2023-03-17T04:31:35;6.05;;;3.67;;
42294;SDS011;27947;47.556;18.718;2023-03-17T04:34:01;10.65;;;3.85;;
42294;SDS011;27947;47.556;18.718;2023-03-17T04:36:27;9.85;;;3.85;;
42294;SDS011;27947;47.556;18.718;2023-03-17T04:38:52;8.43;;;3.90;;
42294;SDS011;27947;47.556;18.718;2023-03-17T04:41:18;10.38;;;4.32;;
42294;SDS011;27947;47.556;18.718;2023-03-17T04:43:44;10.38;;;3.75;;
42294;SDS011;27947;47.556;18.718;2023-03-17T04:46:10;7.05;;;3.28;;
42294;SDS011;27947;47.556;18.718;2023-03-17T04:48:35;11.25;;;3.45;;
42294;SDS011;27947;47.556;18.718;2023-03-17T04:51:01;11.73;;;3.72;;
42294;SDS011;27947;47.556;18.718;2023-03-17T04:53:26;6.78;;;3.33;;
42294;SDS011;27947;47.556;18.718;2023-03-17T04:55:52;8.05;;;3.63;;
42294;SDS011;27947;47.556;18.718;2023-03-17T04:58:18;5.82;;;3.30;;
42294;SDS011;27947;47.556;18.718;2023-03-17T05:00:43;9.07;;;3.35;;
42294;SDS011;27947;47.556;18.718;2023-03-17T05:03:08;8.40;;;3.85;;
42294;SDS011;27947;47.556;18.718;2023-03-17T05:05:34;9.05;;;3.88;;
42294;SDS011;27947;47.556;18.718;2023-03-17T05:08:00;8.40;;;3.67;;
42294;SDS011;27947;47.556;18.718;2023-03-17T05:10:25;8.93;;;4.45;;
42294;SDS011;27947;47.556;18.718;2023-03-17T05:12:51;21.60;;;5.50;;
42294;SDS011;27947;47.556;18.718;2023-03-17T05:15:17;11.98;;;5.38;;
42294;SDS011;27947;47.556;18.718;2023-03-17T05:17:42;12.13;;;4.90;;
42294;SDS011;27947;47.556;18.718;2023-03-17T05:20:08;7.80;;;3.80;;
42294;SDS011;27947;47.556;18.718;2023-03-17T05:22:34;9.45;;;3.70;;
42294;SDS011;27947;47.556;18.718;2023-03-17T05:25:00;9.75;;;3.65;;
42294;SDS011;27947;47.556;18.718;2023-03-17T05:27:26;10.23;;;4.10;;
42294;SDS011;27947;47.556;18.718;2023-03-17T05:29:52;13.98;;;4.18;;
42294;SDS011;27947;47.556;18.718;2023-03-17T05:32:17;9.90;;;4.00;;
42294;SDS011;27947;47.556;18.718;2023-03-17T05:34:43;11.68;;;3.72;;
42294;SDS011;27947;47.556;18.718;2023-03-17T05:37:09;12.57;;;4.20;;
42294;SDS011;27947;47.556;18.718;2023-03-17T05:39:34;11.07;;;4.10;;
42294;SDS011;27947;47.556;18.718;2023-03-17T05:42:00;11.63;;;4.40;;
42294;SDS011;27947;47.556;18.718;2023-03-17T05:44:25;14.77;;;4.88;;
42294;SDS011;27947;47.556;18.718;2023-03-17T05:46:51;8.85;;;3.97;;
42294;SDS011;27947;47.556;18.718;2023-03-17T05:49:16;8.45;;;3.72;;
42294;SDS011;27947;47.556;18.718;2023-03-17T05:51:42;9.43;;;3.95;;
42294;SDS011;27947;47.556;18.718;2023-03-17T05:54:08;8.57;;;4.00;;
42294;SDS011;27947;47.556;18.718;2023-03-17T05:56:33;9.18;;;4.00;;
42294;SDS011;27947;47.556;18.718;2023-03-17T05:58:59;7.63;;;3.95;;
42294;SDS011;27947;47.556;18.718;2023-03-17T06:01:25;9.27;;;4.35;;
42294;SDS011;27947;47.556;18.718;2023-03-17T06:03:51;10.30;;;4.40;;
42294;SDS011;27947;47.556;18.718;2023-03-17T06:06:17;11.48;;;3.97;;
42294;SDS011;27947;47.556;18.718;2023-03-17T06:08:42;9.45;;;3.70;;
42294;SDS011;27947;47.556;18.718;2023-03-17T06:11:08;10.57;;;4.15;;
42294;SDS011;27947;47.556;18.718;2023-03-17T06:13:33;12.27;;;4.57;;
42294;SDS011;27947;47.556;18.718;2023-03-17T06:15:59;8.18;;;3.67;;
42294;SDS011;27947;47.556;18.718;2023-03-17T06:18:24;11.10;;;4.28;;
42294;SDS011;27947;47.556;18.718;2023-03-17T06:20:49;9.18;;;4.30;;
42294;SDS011;27947;47.556;18.718;2023-03-17T06:23:15;12.77;;;4.75;;
42294;SDS011;27947;47.556;18.718;2023-03-17T06:25:41;15.88;;;7.93;;
42294;SDS011;27947;47.556;18.718;2023-03-17T06:28:06;11.02;;;5.65;;
42294;SDS011;27947;47.556;18.718;2023-03-17T06:30:32;11.95;;;4.55;;
42294;SDS011;27947;47.556;18.718;2023-03-17T06:32:58;14.00;;;4.97;;
42294;SDS011;27947;47.556;18.718;2023-03-17T06:35:24;11.10;;;5.18;;
42294;SDS011;27947;47.556;18.718;2023-03-17T06:37:50;20.10;;;4.97;;
42294;SDS011;27947;47.556;18.718;2023-03-17T06:40:15;8.73;;;4.40;;
42294;SDS011;27947;47.556;18.718;2023-03-17T06:42:41;11.27;;;4.72;;
42294;SDS011;27947;47.556;18.718;2023-03-17T06:45:06;9.80;;;4.47;;
42294;SDS011;27947;47.556;18.718;2023-03-17T06:47:33;11.93;;;5.32;;
42294;SDS011;27947;47.556;18.718;2023-03-17T06:49:59;11.20;;;5.60;;
42294;SDS011;27947;47.556;18.718;2023-03-17T06:52:24;10.05;;;5.15;;
42294;SDS011;27947;47.556;18.718;2023-03-17T06:54:51;19.15;;;5.82;;
42294;SDS011;27947;47.556;18.718;2023-03-17T06:57:17;15.30;;;5.10;;
42294;SDS011;27947;47.556;18.718;2023-03-17T06:59:42;13.70;;;6.32;;
42294;SDS011;27947;47.556;18.718;2023-03-17T07:02:09;13.32;;;5.35;;
42294;SDS011;27947;47.556;18.718;2023-03-17T07:04:35;10.20;;;5.10;;
42294;SDS011;27947;47.556;18.718;2023-03-17T07:07:02;13.38;;;5.03;;
42294;SDS011;27947;47.556;18.718;2023-03-17T07:09:29;9.73;;;4.97;;
42294;SDS011;27947;47.556;18.718;2023-03-17T07:11:54;11.15;;;5.10;;
42294;SDS011;27947;47.556;18.718;2023-03-17T07:14:20;10.70;;;5.05;;
42294;SDS011;27947;47.556;18.718;2023-03-17T07:16:45;12.23;;;5.78;;
42294;SDS011;27947;47.556;18.718;2023-03-17T07:19:12;13.30;;;5.63;;
42294;SDS011;27947;47.556;18.718;2023-03-17T07:21:37;12.73;;;5.30;;
42294;SDS011;27947;47.556;18.718;2023-03-17T07:24:03;11.20;;;5.30;;
42294;SDS011;27947;47.556;18.718;2023-03-17T07:26:28;12.13;;;5.93;;
42294;SDS011;27947;47.556;18.718;2023-03-17T07:28:53;11.65;;;5.00;;
42294;SDS011;27947;47.556;18.718;2023-03-17T07:31:19;8.98;;;4.40;;
42294;SDS011;27947;47.556;18.718;2023-03-17T07:33:44;8.80;;;5.10;;
42294;SDS011;27947;47.556;18.718;2023-03-17T07:36:10;11.30;;;5.13;;
42294;SDS011;27947;47.556;18.718;2023-03-17T07:38:35;11.30;;;4.47;;
42294;SDS011;27947;47.556;18.718;2023-03-17T07:41:01;12.98;;;5.47;;
42294;SDS011;27947;47.556;18.718;2023-03-17T07:43:27;12.82;;;5.45;;
42294;SDS011;27947;47.556;18.718;2023-03-17T07:45:53;18.05;;;5.28;;
42294;SDS011;27947;47.556;18.718;2023-03-17T07:48:18;12.88;;;4.72;;
42294;SDS011;27947;47.556;18.718;2023-03-17T07:50:44;8.70;;;4.30;;
42294;SDS011;27947;47.556;18.718;2023-03-17T07:53:09;10.68;;;4.63;;
42294;SDS011;27947;47.556;18.718;2023-03-17T07:55:35;9.68;;;4.45;;
42294;SDS011;27947;47.556;18.718;2023-03-17T07:58:02;9.02;;;4.68;;
42294;SDS011;27947;47.556;18.718;2023-03-17T08:00:27;12.50;;;4.72;;
42294;SDS011;27947;47.556;18.718;2023-03-17T08:02:53;10.85;;;4.65;;
42294;SDS011;27947;47.556;18.718;2023-03-17T08:05:18;11.10;;;3.45;;
42294;SDS011;27947;47.556;18.718;2023-03-17T08:07:44;13.73;;;4.00;;
42294;SDS011;27947;47.556;18.718;2023-03-17T08:10:09;12.65;;;4.53;;
42294;SDS011;27947;47.556;18.718;2023-03-17T08:12:37;8.65;;;3.83;;
42294;SDS011;27947;47.556;18.718;2023-03-17T08:15:02;8.00;;;4.00;;
42294;SDS011;27947;47.556;18.718;2023-03-17T08:17:28;12.40;;;4.28;;
42294;SDS011;27947;47.556;18.718;2023-03-17T08:19:53;12.90;;;4.00;;
42294;SDS011;27947;47.556;18.718;2023-03-17T08:22:19;11.20;;;3.75;;
42294;SDS011;27947;47.556;18.718;2023-03-17T08:24:44;12.90;;;4.35;;
42294;SDS011;27947;47.556;18.718;2023-03-17T08:27:09;13.30;;;4.00;;
42294;SDS011;27947;47.556;18.718;2023-03-17T08:29:35;9.23;;;3.25;;
42294;SDS011;27947;47.556;18.718;2023-03-17T08:32:00;9.15;;;3.42;;
42294;SDS011;27947;47.556;18.718;2023-03-17T08:34:25;6.63;;;3.00;;
42294;SDS011;27947;47.556;18.718;2023-03-17T08:36:51;13.75;;;3.03;;
42294;SDS011;27947;47.556;18.718;2023-03-17T08:39:16;8.38;;;3.28;;
42294;SDS011;27947;47.556;18.718;2023-03-17T08:41:42;5.82;;;2.92;;
42294;SDS011;27947;47.556;18.718;2023-03-17T08:44:07;10.45;;;2.90;;
42294;SDS011;27947;47.556;18.718;2023-03-17T08:46:33;8.40;;;2.33;;
42294;SDS011;27947;47.556;18.718;2023-03-17T08:48:59;7.90;;;2.85;;
42294;SDS011;27947;47.556;18.718;2023-03-17T08:51:26;7.28;;;2.75;;
42294;SDS011;27947;47.556;18.718;2023-03-17T08:53:52;6.60;;;2.92;;
42294;SDS011;27947;47.556;18.718;2023-03-17T08:56:19;5.55;;;2.67;;
42294;SDS011;27947;47.556;18.718;2023-03-17T08:58:44;8.30;;;2.70;;
42294;SDS011;27947;47.556;18.718;2023-03-17T09:01:10;6.22;;;2.85;;
42294;SDS011;27947;47.556;18.718;2023-03-17T09:03:35;5.07;;;2.75;;
42294;SDS011;27947;47.556;18.718;2023-03-17T09:06:01;5.45;;;2.65;;
42294;SDS011;27947;47.556;18.718;2023-03-17T09:08:30;7.53;;;2.65;;
42294;SDS011;27947;47.556;18.718;2023-03-17T09:10:55;6.97;;;2.50;;
42294;SDS011;27947;47.556;18.718;2023-03-17T09:13:21;7.05;;;2.72;;
42294;SDS011;27947;47.556;18.718;2023-03-17T09:15:47;8.13;;;2.47;;
42294;SDS011;27947;47.556;18.718;2023-03-17T09:18:12;13.70;;;3.60;;
42294;SDS011;27947;47.556;18.718;2023-03-17T09:20:38;12.45;;;3.15;;
42294;SDS011;27947;47.556;18.718;2023-03-17T09:23:08;9.30;;;3.10;;
42294;SDS011;27947;47.556;18.718;2023-03-17T09:25:37;6.03;;;2.72;;
42294;SDS011;27947;47.556;18.718;2023-03-17T09:28:03;4.80;;;2.53;;
42294;SDS011;27947;47.556;18.718;2023-03-17T09:30:29;8.40;;;2.75;;
42294;SDS011;27947;47.556;18.718;2023-03-17T09:32:54;12.23;;;3.72;;
42294;SDS011;27947;47.556;18.718;2023-03-17T09:35:19;11.50;;;3.63;;
42294;SDS011;27947;47.556;18.718;2023-03-17T09:37:46;14.48;;;3.78;;
42294;SDS011;27947;47.556;18.718;2023-03-17T09:40:13;14.23;;;3.15;;
42294;SDS011;27947;47.556;18.718;2023-03-17T09:47:50;5.15;;;2.13;;
42294;SDS011;27947;47.556;18.718;2023-03-17T09:50:24;11.27;;;3.88;;
42294;SDS011;27947;47.556;18.718;2023-03-17T09:52:51;6.63;;;3.05;;
42294;SDS011;27947;47.556;18.718;2023-03-17T09:55:29;5.88;;;2.67;;
42294;SDS011;27947;47.556;18.718;2023-03-17T09:57:55;7.00;;;2.47;;
42294;SDS011;27947;47.556;18.718;2023-03-17T10:00:21;5.65;;;2.60;;
42294;SDS011;27947;47.556;18.718;2023-03-17T10:02:52;5.22;;;2.17;;
42294;SDS011;27947;47.556;18.718;2023-03-17T10:18:07;8.52;;;2.95;;
42294;SDS011;27947;47.556;18.718;2023-03-17T10:20:33;5.82;;;2.38;;
42294;SDS011;27947;47.556;18.718;2023-03-17T10:23:02;15.60;;;3.42;;
42294;SDS011;27947;47.556;18.718;2023-03-17T10:25:30;5.85;;;2.50;;
42294;SDS011;27947;47.556;18.718;2023-03-17T10:30:40;5.38;;;2.78;;
42294;SDS011;27947;47.556;18.718;2023-03-17T10:33:05;8.25;;;2.63;;
42294;SDS011;27947;47.556;18.718;2023-03-17T10:35:31;5.97;;;2.30;;
42294;SDS011;27947;47.556;18.718;2023-03-17T10:38:00;6.88;;;2.28;;
42294;SDS011;27947;47.556;18.718;2023-03-17T10:40:27;7.88;;;2.47;;
42294;SDS011;27947;47.556;18.718;2023-03-17T10:42:54;7.60;;;2.40;;
42294;SDS011;27947;47.556;18.718;2023-03-17T10:45:31;11.68;;;2.85;;
42294;SDS011;27947;47.556;18.718;2023-03-17T10:47:57;5.18;;;2.10;;
42294;SDS011;27947;47.556;18.718;2023-03-17T10:50:25;5.88;;;2.42;;
42294;SDS011;27947;47.556;18.718;2023-03-17T10:53:38;5.38;;;2.30;;
42294;SDS011;27947;47.556;18.718;2023-03-17T10:55:41;5.95;;;2.40;;
42294;SDS011;27947;47.556;18.718;2023-03-17T11:00:35;6.75;;;3.22;;
42294;SDS011;27947;47.556;18.718;2023-03-17T11:03:10;7.80;;;2.92;;
42294;SDS011;27947;47.556;18.718;2023-03-17T11:05:38;6.80;;;2.55;;
42294;SDS011;27947;47.556;18.718;2023-03-17T11:08:08;8.50;;;2.67;;
42294;SDS011;27947;47.556;18.718;2023-03-17T11:10:38;7.15;;;2.65;;
42294;SDS011;27947;47.556;18.718;2023-03-17T11:13:04;7.50;;;2.45;;
42294;SDS011;27947;47.556;18.718;2023-03-17T11:15:36;7.28;;;2.40;;
42294;SDS011;27947;47.556;18.718;2023-03-17T11:18:17;8.10;;;3.10;;
42294;SDS011;27947;47.556;18.718;2023-03-17T11:20:53;6.32;;;2.40;;
42294;SDS011;27947;47.556;18.718;2023-03-17T11:25:52;7.10;;;2.60;;
42294;SDS011;27947;47.556;18.718;2023-03-17T11:28:20;7.97;;;2.92;;
42294;SDS011;27947;47.556;18.718;2023-03-17T11:30:49;10.15;;;2.72;;
42294;SDS011;27947;47.556;18.718;2023-03-17T11:38:25;5.78;;;2.35;;
42294;SDS011;27947;47.556;18.718;2023-03-17T11:43:22;4.80;;;2.47;;
42294;SDS011;27947;47.556;18.718;2023-03-17T11:48:59;7.93;;;2.85;;
42294;SDS011;27947;47.556;18.718;2023-03-17T11:56:20;14.00;;;3.15;;
42294;SDS011;27947;47.556;18.718;2023-03-17T11:58:54;8.03;;;3.30;;
42294;SDS011;27947;47.556;18.718;2023-03-17T12:01:25;7.03;;;3.13;;
42294;SDS011;27947;47.556;18.718;2023-03-17T12:03:57;7.20;;;2.72;;
42294;SDS011;27947;47.556;18.718;2023-03-17T12:06:28;6.47;;;2.45;;
42294;SDS011;27947;47.556;18.718;2023-03-17T12:11:25;5.75;;;2.55;;
42294;SDS011;27947;47.556;18.718;2023-03-17T12:13:58;6.28;;;2.92;;
42294;SDS011;27947;47.556;18.718;2023-03-17T12:19:08;5.57;;;2.85;;
42294;SDS011;27947;47.556;18.718;2023-03-17T12:21:41;5.00;;;2.67;;
42294;SDS011;27947;47.556;18.718;2023-03-17T12:29:36;8.15;;;3.03;;
42294;SDS011;27947;47.556;18.718;2023-03-17T12:32:02;8.32;;;2.90;;
42294;SDS011;27947;47.556;18.718;2023-03-17T12:36:55;8.38;;;2.88;;
42294;SDS011;27947;47.556;18.718;2023-03-17T12:39:28;12.13;;;3.33;;
42294;SDS011;27947;47.556;18.718;2023-03-17T12:54:19;11.85;;;3.25;;
42294;SDS011;27947;47.556;18.718;2023-03-17T12:56:46;8.02;;;2.78;;
42294;SDS011;27947;47.556;18.718;2023-03-17T12:59:14;7.72;;;2.83;;
42294;SDS011;27947;47.556;18.718;2023-03-17T13:01:43;8.15;;;3.00;;
42294;SDS011;27947;47.556;18.718;2023-03-17T13:06:40;6.18;;;2.92;;
42294;SDS011;27947;47.556;18.718;2023-03-17T13:11:52;5.15;;;2.47;;
42294;SDS011;27947;47.556;18.718;2023-03-17T13:16:46;8.80;;;2.92;;
42294;SDS011;27947;47.556;18.718;2023-03-17T13:19:17;7.30;;;2.85;;
42294;SDS011;27947;47.556;18.718;2023-03-17T13:27:13;5.18;;;2.60;;
42294;SDS011;27947;47.556;18.718;2023-03-17T13:29:40;6.05;;;2.40;;
42294;SDS011;27947;47.556;18.718;2023-03-17T13:34:44;13.27;;;3.58;;
42294;SDS011;27947;47.556;18.718;2023-03-17T13:37:18;6.15;;;2.60;;
42294;SDS011;27947;47.556;18.718;2023-03-17T13:47:15;10.57;;;2.78;;
42294;SDS011;27947;47.556;18.718;2023-03-17T13:49:49;5.38;;;2.40;;
42294;SDS011;27947;47.556;18.718;2023-03-17T13:52:26;5.95;;;2.72;;
42294;SDS011;27947;47.556;18.718;2023-03-17T13:55:00;7.55;;;2.50;;
42294;SDS011;27947;47.556;18.718;2023-03-17T13:57:27;4.43;;;2.10;;
42294;SDS011;27947;47.556;18.718;2023-03-17T14:02:19;5.55;;;2.72;;
42294;SDS011;27947;47.556;18.718;2023-03-17T14:07:17;20.63;;;4.73;;
42294;SDS011;27947;47.556;18.718;2023-03-17T14:09:43;7.35;;;2.83;;
42294;SDS011;27947;47.556;18.718;2023-03-17T14:12:20;4.63;;;2.60;;
42294;SDS011;27947;47.556;18.718;2023-03-17T14:15:04;5.75;;;2.40;;
42294;SDS011;27947;47.556;18.718;2023-03-17T14:17:31;7.18;;;2.20;;
42294;SDS011;27947;47.556;18.718;2023-03-17T14:20:02;9.35;;;2.60;;
42294;SDS011;27947;47.556;18.718;2023-03-17T14:24:58;4.97;;;2.42;;
42294;SDS011;27947;47.556;18.718;2023-03-17T14:27:23;8.13;;;2.55;;
42294;SDS011;27947;47.556;18.718;2023-03-17T14:29:50;6.88;;;2.45;;
42294;SDS011;27947;47.556;18.718;2023-03-17T14:32:17;8.85;;;2.83;;
42294;SDS011;27947;47.556;18.718;2023-03-17T14:34:43;6.78;;;3.17;;
42294;SDS011;27947;47.556;18.718;2023-03-17T14:37:10;8.70;;;3.15;;
42294;SDS011;27947;47.556;18.718;2023-03-17T14:39:42;8.85;;;3.03;;
42294;SDS011;27947;47.556;18.718;2023-03-17T14:42:07;5.10;;;2.80;;
42294;SDS011;27947;47.556;18.718;2023-03-17T14:44:36;6.07;;;2.60;;
42294;SDS011;27947;47.556;18.718;2023-03-17T14:47:03;6.25;;;3.08;;
42294;SDS011;27947;47.556;18.718;2023-03-17T14:49:29;3.95;;;2.22;;
42294;SDS011;27947;47.556;18.718;2023-03-17T14:51:55;5.88;;;2.85;;
42294;SDS011;27947;47.556;18.718;2023-03-17T14:54:23;7.68;;;2.80;;
42294;SDS011;27947;47.556;18.718;2023-03-17T14:56:52;5.75;;;2.90;;
42294;SDS011;27947;47.556;18.718;2023-03-17T14:59:34;7.20;;;2.85;;
42294;SDS011;27947;47.556;18.718;2023-03-17T15:02:01;5.30;;;2.70;;
42294;SDS011;27947;47.556;18.718;2023-03-17T15:04:28;7.22;;;2.40;;
42294;SDS011;27947;47.556;18.718;2023-03-17T15:07:00;5.57;;;2.30;;
42294;SDS011;27947;47.556;18.718;2023-03-17T15:11:55;5.07;;;2.40;;
42294;SDS011;27947;47.556;18.718;2023-03-17T15:14:56;6.78;;;2.78;;
42294;SDS011;27947;47.556;18.718;2023-03-17T15:19:43;5.90;;;2.50;;
42294;SDS011;27947;47.556;18.718;2023-03-17T15:25:02;5.43;;;2.47;;
42294;SDS011;27947;47.556;18.718;2023-03-17T15:27:38;10.57;;;3.17;;
42294;SDS011;27947;47.556;18.718;2023-03-17T15:30:04;12.80;;;2.83;;
42294;SDS011;27947;47.556;18.718;2023-03-17T15:32:29;6.47;;;2.88;;
42294;SDS011;27947;47.556;18.718;2023-03-17T15:34:56;12.77;;;2.85;;
42294;SDS011;27947;47.556;18.718;2023-03-17T15:37:25;10.68;;;2.95;;
42294;SDS011;27947;47.556;18.718;2023-03-17T15:39:51;8.43;;;3.25;;
42294;SDS011;27947;47.556;18.718;2023-03-17T15:42:18;7.10;;;3.30;;
42294;SDS011;27947;47.556;18.718;2023-03-17T15:44:43;4.97;;;2.60;;
42294;SDS011;27947;47.556;18.718;2023-03-17T15:47:13;5.00;;;2.58;;
42294;SDS011;27947;47.556;18.718;2023-03-17T15:49:39;6.32;;;2.85;;
42294;SDS011;27947;47.556;18.718;2023-03-17T15:52:09;6.80;;;2.90;;
42294;SDS011;27947;47.556;18.718;2023-03-17T15:54:35;10.30;;;3.30;;
42294;SDS011;27947;47.556;18.718;2023-03-17T15:57:01;7.03;;;2.90;;
42294;SDS011;27947;47.556;18.718;2023-03-17T15:59:26;6.47;;;3.40;;
42294;SDS011;27947;47.556;18.718;2023-03-17T16:01:51;10.00;;;4.15;;
42294;SDS011;27947;47.556;18.718;2023-03-17T16:04:17;9.65;;;3.22;;
42294;SDS011;27947;47.556;18.718;2023-03-17T16:06:42;7.72;;;2.70;;
42294;SDS011;27947;47.556;18.718;2023-03-17T16:09:12;7.00;;;2.53;;
42294;SDS011;27947;47.556;18.718;2023-03-17T16:11:38;7.60;;;2.95;;
42294;SDS011;27947;47.556;18.718;2023-03-17T16:14:03;4.93;;;2.90;;
42294;SDS011;27947;47.556;18.718;2023-03-17T16:16:37;7.93;;;4.03;;
42294;SDS011;27947;47.556;18.718;2023-03-17T16:19:03;6.85;;;3.80;;